Weerstation
Sluispark-LeuvenLeuven-Sluispark

Weerstation
Wilsele-PutkapelWilsele-Putkapel



Nabijgelegen vliegvelden - METAR rapporten

   
EBBR - Wilsele bij Leuven
Gewijzigd: 08-05-2021 17:20
Licht bewolkt    Wind: ZW 33.3 km/h
Licht bewolkt
Wind: Wind: ZW 33.3 km/h
Temperatuur: 18°C
Dauwpunt: 11°C
Vochtigheid: 64%
Barometer: 1008 hPa
Bewolking: Licht bewolkt
Zicht: meer dan 10 km
Bewolking: Licht bewolkt 1127.8 m
EBBR 081520Z 22018KT 9999 FEW037 18/11 Q1008 NOSIG
EBAW - Antwerp
Gewijzigd: 08-05-2021 17:20
Helder    Wind: ZZW 25.9 km/h
Helder
Wind: Wind: ZZW 25.9 km/h
Temperatuur: 18°C
Dauwpunt: 11°C
Vochtigheid: 64%
Barometer: 1008 hPa
Zicht: meer dan 10 km
Bewolking: Helder
EBAW 081520Z 20014KT 170V240 CAVOK 18/11 Q1008 NOSIG
EBLG - Liège
Gewijzigd: 08-05-2021 17:20
Grotendeels bewolkt    Wind: ZZW 29.6 km/h
Grotendeels bewolkt
Wind: Wind: ZZW 29.6 km/h
Temperatuur: 18°C
Dauwpunt: 8°C
Vochtigheid: 52%
Barometer: 1010 hPa
Bewolking: Grotendeels bewolkt
Zicht: meer dan 10 km
Bewolking: Grotendeels bewolkt 1310.6 m
EBLG 081520Z 20016KT 9999 BKN043 18/08 Q1010 NOSIG
EBCV - Mons/Bergen
Gewijzigd: 08-05-2021 16:55
Grotendeels bewolkt    Wind: ZZW 31.5 km/h<br />Gust to 31.5 km/h
Grotendeels bewolkt
Wind: Wind: ZZW 31.5 km/h
Gust to 31.5 km/h
Temperatuur: 18°C
Dauwpunt: 11°C
Vochtigheid: 64%
Barometer: 1008 hPa
Bewolking: Grotendeels bewolkt
Zicht: meer dan 10 km
Bewolking: Grotendeels bewolkt 944.9 m
EBCV 081455Z AUTO 20017G27KT 9999 BKN031/// 18/11 Q1008 BLU
EHBK - Maastricht
Gewijzigd: 08-05-2021 17:25
Bewolking    Wind: ZZW 29.6 km/h
Bewolking
Wind: Wind: ZZW 29.6 km/h
Temperatuur: 17°C
Dauwpunt: 8°C
Vochtigheid: 56%
Barometer: 1009 hPa
Bewolking: Bewolking
Zicht: meer dan 10 km
Bewolking: Grotendeels bewolkt 1280.2 m,
Bewolking 1402.1 m
EHBK 081525Z AUTO 20016KT 9999 BKN042 OVC046 17/08 Q1009 NOSIG
ELLX - Luxemburg
Gewijzigd: 08-05-2021 17:20
Grotendeels bewolkt    Wind: Zuiden 18.5 km/h
Grotendeels bewolkt
Wind: Wind: Zuiden 18.5 km/h
Temperatuur: 16°C
Dauwpunt: 8°C
Vochtigheid: 59%
Barometer: 1012 hPa
Bewolking: Grotendeels bewolkt
Zicht: meer dan 10 km
Bewolking: Licht bewolkt 1249.7 m,
Grotendeels bewolkt 1371.6 m
ELLX 081520Z 19010KT 9999 FEW041 BKN045 16/08 Q1012 NOSIG
EBOS - Oostende
Gewijzigd: 08-05-2021 17:20
Grotendeels bewolkt    Wind: ZZW 27.8 km/h
Grotendeels bewolkt
Wind: Wind: ZZW 27.8 km/h
Temperatuur: 17°C
Dauwpunt: 12°C
Vochtigheid: 73%
Barometer: 1006 hPa
Bewolking: Grotendeels bewolkt
Zicht: meer dan 10 km
Bewolking: Licht bewolkt 762 m,
Grotendeels bewolkt 1127.8 m
EBOS 081520Z 21015KT 9999 FEW025 BKN037 17/12 Q1006 NOSIG
  

Script ontwikkeld door  Saratoga-weather.org Aangepast voor de template door  Weerstation Leuven

U vindt ons ook hier:

UK Metoffice

WeatherCloud

European Weather Network

Weather Underground

Benelux Weather Network

AWEKAS

WeatherlinkIP

HAMweather, WeatherForYou, PWS Weather

Het Weer Aktueel

Apparatuur in gebruik:

Weer-station
Davis VP2 weatherstation

Weer-programma
Meteobridge

Weer-computer
D-Link DIR-505

Webleverancier
Robohost

Davis VP2 weatherstation

Meteobridge

D-Link DIR-505

Robohost